Irving, TX

6:10 PM CDT on August 28, 2015 (GMT -0500)
Hackberry Creek | | Change Station
CLOSE
Current Station
Personal Weather Station
Location: Irving, TX
Elevation: 507 ft
Nearby Weather Stations

Elev 507 ft 32.91 °N, 96.98 °W | Updated 33 seconds ago

Clear
Clear
93.6 °F
Feels Like 98 °F
N
2.7
Wind Variable Wind from ESE
Gusts 6.3 mph

Today
High -- | Low -- °F
--% Chance of Precip.
Yesterday
High -- | Low -- °F
Precip. -- in
6:59 AM 7:58 PM
Waxing Gibbous, 99% visible
Pressure 29.88 in
Visibility 10.0 miles
Clouds Few 18000 ft
Mostly Cloudy 25000 ft
Heat Index 98 °F
Dew Point 68 °F
Humidity 44%
Rainfall 0.00 in
Snow Depth Not available.
UV 1 out of 12
Pollen 8.10 out of 12
Air Quality Not available.
Flu Activity Not available.
METAR KDFW 282253Z 11012KT 10SM FEW180 BKN250 36/17 A2990 RMK AO2 SLP116 T03560167
Pressure 29.88 in
Visibility 10.0 miles
Clouds Few 18000 ft
Mostly Cloudy 25000 ft
Heat Index 98 °F
Dew Point 68 °F
Humidity 44%
Rainfall 0.00 in
Snow Depth Not available.
UV 1 out of 12
Pollen 8.10 out of 12
Air Quality Not available.
Flu Activity Not available.
METAR KDFW 282253Z 11012KT 10SM FEW180 BKN250 36/17 A2990 RMK AO2 SLP116 T03560167
Nowcast | as of 3:32 PM CDT on August 28, 2015

Areas of light rain are occurring north and northwest of a line from Cisco to Bowie to Sulphur Springs late this afternoon. This activity is moving southeast and rainfall amounts will be only a few hundredths of an inch at most. A rogue lightning strike cannot be ruled out Otherwise...it will be partly to mostly sunny with temperatures in the 90s.

×

10-Day Weather Forecast

×

Almanac

Astronomy

Aug. 28, 2015 Rise Set
Actual Time
Civil Twilight
Nautical Twilight
Astronomical Twilight
Moon
Length of Visible Light
Length of Day
Tomorrow will be .
, % of the Moon is Illuminated

Today's Extremes

State Highs State Lows

Community

WunderPhotos

Upload Photos

1,850,522 photos uploaded!

WunderBlogs® & News

Nearby

Air Quality

  Air Quality AQ Index Pollutant
Not available.

Snow Depth

Station Depth Elevation

Earthquake Activity

City Distance Mag. Time & Date
Minimum magnitude displayed is 2.5.

Coastal Water Temperatures

Place Temperature

Stations

Nearby Weather Stations

Station Location Temp. Windchill Dew Point Humidity Wind Precip. Elev Updated Type